Aérodrome :
LOGIN :

S'inscrire | Disclaimer

   EN    FR    IT 

 










Légende :    VFR   VFR Marginal   IFR   IFR Intensif   IFR Très Intensif
Visi : 
Plafond : 
>= 8 km
>= 3000ft
5 à 8 km
1000 à 3000 ft
1500m à 5 km
500 à 1000 ft
800 à 1500m
200 à 500 ft
< 800m
< 200 ft
Symboles :   Orages  Brouillard  Fortes neiges  Fortes précipitations  Vent > 20 kt
SIGMETs :   Divers  Orages  Givrage  Turbulence  Onde Orograph.  Cendres Volcan.







- Altitude de l'aérodrome : 1249 ft


ETSN - Neuburg AB

DERNIER METAR :
  • 280802Z 03005KT 8000 -RA FEW012 BKN015 05/03 Q1011 WHT WHT TEMPO GRN

METARs EXPIRÉS :
  • 280720Z 36008KT 7000 -RA FEW012 OVC015 05/03 Q1011 WHT WHT TEMPO GRN
  • 280620Z 01005KT 6000 -RA FEW012 OVC015 04/03 Q1011 WHT WHT TEMPO GRN
  • 280520Z 01005KT 6000 -RA SCT012 OVC016 04/03 Q1010 WHT WHT TEMPO GRN

TAF TAF ETSN
Valide du 28 à 08h jusqu'au 28 à 17h UTC


280720Z 2808/2817 34008KT 7000 -RA SCT010 BKN020
TEMPO 2808/2817 35010KT 4000 RADZ BKN010 OVC020 BY ETGL
Pas de NOTAMs connus pour ce terrain.



MET'MAP, la Météo Aéronautique d'un coup d'oeil ! - Copyright ORBIFLY Décembre 2007 - Disclaimer

ORBIFLY MET'MAP TEAM :

Programmation & Développement : Alexandra Zaïnal
Conception & Développement : Baudouin d'Aumeries
Co-Programmation & Développement : Marc-Olivier Méhu
Soutien technique & logistique : Manuel Goepfert

Contact : metmap@orbifly.com




SOURCES & CREDITS :

   NOAA